Bayview, ID (83803)

11:14 PM PDT on October 01, 2014 (GMT -0700)
KIDCOCOL5 | Change Station
CLOSE
Current Station
Personal Weather Station
Location: Cocolalla, ID
Elevation: 2400 ft
Nearby Weather Stations

Elev 2400 ft 48.10 °N, 116.61 °W | Updated 13 minutes ago

Partly Cloudy
Partly Cloudy
48.0 °F
Feels Like 48 °F
N
0.0
Wind Variable Wind from SSE
Gusts 0.0 mph

Today
High -- | Low -- °F
--% Chance of Precip.
Yesterday
High -- | Low -- °F
Precip. -- in
6:45 AM 6:25 PM
First Quarter, 55% visible
Pressure 30.01 in
Visibility 10.0 miles
Clouds Clear
Windchill 48 °F
Dew Point 36 °F
Humidity 63%
Rainfall 0.00 in
Snow Depth 1 in , 1 in , 1 in
UV 0 out of 12
Pollen 5.70 out of 12
Air Quality Not available.
Flu Activity Not available.
METAR KCOE 020555Z AUTO 17011KT 10SM CLR 12/03 A3001 RMK AO1 10160 20110 57007

More Conditions Fewer Conditions

Pressure 30.01 in
Visibility 10.0 miles
Clouds Clear
Windchill 48 °F
Dew Point 36 °F
Humidity 63%
Rainfall 0.00 in
Snow Depth 1 in , 1 in , 1 in
UV 0 out of 12
Pollen 5.70 out of 12
Air Quality Not available.
Flu Activity Not available.
METAR KCOE 020555Z AUTO 17011KT 10SM CLR 12/03 A3001 RMK AO1 10160 20110 57007

More Conditions Fewer Conditions

10-Day Weather Forecast

Almanac

Astronomy

Oct. 01, 2014 Rise Set
Actual Time 6:45 AM PDT 6:25 PM PDT
Civil Twilight 6:14 AM PDT 6:56 PM PDT
Nautical Twilight 5:38 AM PDT 7:32 PM PDT
Astronomical Twilight 5:01 AM PDT 8:08 PM PDT
Moon 2:09 PM PDT (10/1) 11:43 PM PDT (10/1)
Length of Visible Light 12h 41m
Length of Day
11h 39m
Tomorrow will be 3m 27s shorter.
First Quarter, 55% of the Moon is Illuminated
Oct 2
First Quarter
Oct 8
Full
Oct 15
Last Quarter
Oct 23
New
Oct 30
First Quarter

Yesterday's Extremes

State Highs State Lows

Community

WunderPhotos

Upload Photos

1,758,198 photos uploaded!

Nearby

Snow Depth

Station Depth Elevation
Morgan Creek 1 in 7600 ft
Humboldt Gulch 1 in 4250 ft
Smiley Mountain 1 in 9520 ft
Island Park 0 in 6290 ft
Bostetter R.S. 0 in 7500 ft

Earthquake Activity

City Distance Mag. Time & Date
No recent earthquake activity has been reported nearby.
Minimum magnitude displayed is 2.5.

Coastal Water Temperatures

Place Temperature
No Stations Reporting

Nearby Weather Stations